sensor_id;sensor_type;location;lat;lon;timestamp;pressure;altitude;pressure_sealevel;temperature;humidity
70015;BME280;57358;51.094;6.760;2022-10-30T00:02:20;101323.03;;;14.95;100.00
70015;BME280;57358;51.094;6.760;2022-10-30T00:04:46;101327.94;;;15.01;100.00
70015;BME280;57358;51.094;6.760;2022-10-30T00:07:13;101348.38;;;15.13;100.00
70015;BME280;57358;51.094;6.760;2022-10-30T00:09:39;101368.78;;;15.11;100.00
70015;BME280;57358;51.094;6.760;2022-10-30T00:12:06;101400.31;;;15.29;100.00
70015;BME280;57358;51.094;6.760;2022-10-30T00:14:32;101385.03;;;15.20;100.00
70015;BME280;57358;51.094;6.760;2022-10-30T00:16:59;101372.34;;;15.25;100.00
70015;BME280;57358;51.094;6.760;2022-10-30T00:19:25;101386.25;;;15.28;100.00
70015;BME280;57358;51.094;6.760;2022-10-30T00:21:51;101336.47;;;14.92;100.00
70015;BME280;57358;51.094;6.760;2022-10-30T00:24:18;101383.50;;;15.15;100.00
70015;BME280;57358;51.094;6.760;2022-10-30T00:26:44;101386.03;;;15.17;100.00
70015;BME280;57358;51.094;6.760;2022-10-30T00:29:11;101390.31;;;15.20;100.00
70015;BME280;57358;51.094;6.760;2022-10-30T00:31:37;101314.72;;;14.72;100.00
70015;BME280;57358;51.094;6.760;2022-10-30T00:34:03;101345.06;;;14.95;100.00
70015;BME280;57358;51.094;6.760;2022-10-30T00:36:30;101385.19;;;15.16;100.00
70015;BME280;57358;51.094;6.760;2022-10-30T00:38:56;101347.88;;;14.92;100.00
70015;BME280;57358;51.094;6.760;2022-10-30T00:41:24;101378.38;;;15.12;100.00
70015;BME280;57358;51.094;6.760;2022-10-30T00:43:51;101378.31;;;15.14;100.00
70015;BME280;57358;51.094;6.760;2022-10-30T00:51:29;101337.00;;;14.83;100.00
70015;BME280;57358;51.094;6.760;2022-10-30T00:54:02;101309.72;;;14.68;100.00
70015;BME280;57358;51.094;6.760;2022-10-30T00:56:29;101377.06;;;15.05;100.00
70015;BME280;57358;51.094;6.760;2022-10-30T00:59:02;101366.59;;;15.04;100.00
70015;BME280;57358;51.094;6.760;2022-10-30T01:01:33;101331.16;;;14.78;100.00
70015;BME280;57358;51.094;6.760;2022-10-30T01:04:02;101372.81;;;15.03;100.00
70015;BME280;57358;51.094;6.760;2022-10-30T01:06:36;101364.03;;;15.02;100.00
70015;BME280;57358;51.094;6.760;2022-10-30T01:09:04;101363.28;;;15.00;100.00
70015;BME280;57358;51.094;6.760;2022-10-30T01:11:31;101360.63;;;15.00;100.00
70015;BME280;57358;51.094;6.760;2022-10-30T01:14:02;101356.56;;;14.94;100.00
70015;BME280;57358;51.094;6.760;2022-10-30T01:16:40;101353.00;;;14.95;100.00
70015;BME280;57358;51.094;6.760;2022-10-30T01:19:24;101318.41;;;14.70;100.00
70015;BME280;57358;51.094;6.760;2022-10-30T01:21:59;101302.78;;;14.65;100.00
70015;BME280;57358;51.094;6.760;2022-10-30T01:24:57;101344.56;;;14.89;100.00
70015;BME280;57358;51.094;6.760;2022-10-30T01:33:29;101353.63;;;14.85;100.00
70015;BME280;57358;51.094;6.760;2022-10-30T01:36:16;101336.13;;;14.68;100.00
70015;BME280;57358;51.094;6.760;2022-10-30T01:38:51;101336.59;;;14.74;100.00
70015;BME280;57358;51.094;6.760;2022-10-30T01:41:19;101296.34;;;14.55;100.00
70015;BME280;57358;51.094;6.760;2022-10-30T01:43:47;101291.69;;;14.44;100.00
70015;BME280;57358;51.094;6.760;2022-10-30T01:46:30;101346.91;;;14.79;100.00
70015;BME280;57358;51.094;6.760;2022-10-30T01:56:58;101278.75;;;14.25;100.00
70015;BME280;57358;51.094;6.760;2022-10-30T01:59:47;101323.09;;;14.49;100.00
70015;BME280;57358;51.094;6.760;2022-10-30T02:02:15;101269.63;;;14.15;100.00
70015;BME280;57358;51.094;6.760;2022-10-30T02:04:42;101306.81;;;14.26;100.00
70015;BME280;57358;51.094;6.760;2022-10-30T02:07:10;101329.88;;;14.39;100.00
70015;BME280;57358;51.094;6.760;2022-10-30T02:09:37;101323.00;;;14.36;100.00
70015;BME280;57358;51.094;6.760;2022-10-30T02:12:05;101315.44;;;14.30;100.00
70015;BME280;57358;51.094;6.760;2022-10-30T02:14:37;101278.19;;;14.04;100.00
70015;BME280;57358;51.094;6.760;2022-10-30T02:17:06;101311.19;;;14.27;100.00
70015;BME280;57358;51.094;6.760;2022-10-30T02:19:33;101285.41;;;14.01;100.00
70015;BME280;57358;51.094;6.760;2022-10-30T02:22:00;101321.50;;;14.16;100.00
70015;BME280;57358;51.094;6.760;2022-10-30T02:24:28;101250.38;;;13.67;100.00
70015;BME280;57358;51.094;6.760;2022-10-30T02:26:54;101215.28;;;13.50;100.00
70015;BME280;57358;51.094;6.760;2022-10-30T02:29:21;101316.91;;;14.04;100.00
70015;BME280;57358;51.094;6.760;2022-10-30T02:31:47;101309.28;;;13.83;100.00
70015;BME280;57358;51.094;6.760;2022-10-30T02:34:14;101328.59;;;14.00;100.00
70015;BME280;57358;51.094;6.760;2022-10-30T02:36:40;101268.00;;;13.66;100.00
70015;BME280;57358;51.094;6.760;2022-10-30T02:39:07;101316.25;;;14.00;100.00
70015;BME280;57358;51.094;6.760;2022-10-30T02:41:33;101306.78;;;13.96;100.00
70015;BME280;57358;51.094;6.760;2022-10-30T02:44:00;101272.66;;;13.77;100.00
70015;BME280;57358;51.094;6.760;2022-10-30T02:46:27;101277.19;;;13.75;100.00
70015;BME280;57358;51.094;6.760;2022-10-30T02:48:53;101332.75;;;14.04;100.00
70015;BME280;57358;51.094;6.760;2022-10-30T02:54:04;101335.91;;;13.94;100.00
70015;BME280;57358;51.094;6.760;2022-10-30T02:56:30;101312.69;;;13.69;100.00
70015;BME280;57358;51.094;6.760;2022-10-30T02:58:57;101267.66;;;13.41;100.00
70015;BME280;57358;51.094;6.760;2022-10-30T03:01:23;101336.78;;;13.79;100.00
70015;BME280;57358;51.094;6.760;2022-10-30T03:03:50;101334.22;;;13.77;100.00
70015;BME280;57358;51.094;6.760;2022-10-30T03:06:17;101338.31;;;13.67;100.00
70015;BME280;57358;51.094;6.760;2022-10-30T03:08:43;101284.13;;;13.28;100.00
70015;BME280;57358;51.094;6.760;2022-10-30T03:11:11;101311.81;;;13.37;100.00
70015;BME280;57358;51.094;6.760;2022-10-30T03:13:40;101326.38;;;13.27;100.00
70015;BME280;57358;51.094;6.760;2022-10-30T03:16:16;101331.81;;;13.24;100.00
70015;BME280;57358;51.094;6.760;2022-10-30T03:18:44;101284.06;;;12.96;100.00
70015;BME280;57358;51.094;6.760;2022-10-30T03:21:13;101331.31;;;13.17;100.00
70015;BME280;57358;51.094;6.760;2022-10-30T03:23:40;101260.72;;;12.73;100.00
70015;BME280;57358;51.094;6.760;2022-10-30T03:26:07;101262.59;;;12.71;100.00
70015;BME280;57358;51.094;6.760;2022-10-30T03:28:33;101238.66;;;12.58;100.00
70015;BME280;57358;51.094;6.760;2022-10-30T03:31:19;101301.97;;;12.90;100.00
70015;BME280;57358;51.094;6.760;2022-10-30T03:33:45;101256.56;;;12.51;100.00
70015;BME280;57358;51.094;6.760;2022-10-30T03:36:13;101248.28;;;12.42;100.00
70015;BME280;57358;51.094;6.760;2022-10-30T03:38:40;101249.19;;;12.41;100.00
70015;BME280;57358;51.094;6.760;2022-10-30T03:41:06;101289.22;;;12.65;100.00
70015;BME280;57358;51.094;6.760;2022-10-30T03:43:33;101290.22;;;12.62;100.00
70015;BME280;57358;51.094;6.760;2022-10-30T03:45:59;101296.44;;;12.61;100.00
70015;BME280;57358;51.094;6.760;2022-10-30T03:48:27;101227.78;;;12.13;100.00
70015;BME280;57358;51.094;6.760;2022-10-30T03:50:55;101294.19;;;12.53;100.00
70015;BME280;57358;51.094;6.760;2022-10-30T03:53:23;101306.66;;;12.50;100.00
70015;BME280;57358;51.094;6.760;2022-10-30T03:55:52;101270.03;;;12.28;100.00
70015;BME280;57358;51.094;6.760;2022-10-30T03:58:21;101233.00;;;11.96;100.00
70015;BME280;57358;51.094;6.760;2022-10-30T04:00:48;101267.53;;;12.07;100.00
70015;BME280;57358;51.094;6.760;2022-10-30T04:03:14;101316.25;;;12.33;100.00
70015;BME280;57358;51.094;6.760;2022-10-30T04:05:40;101256.06;;;11.91;100.00
70015;BME280;57358;51.094;6.760;2022-10-30T04:08:11;101313.09;;;12.27;100.00
70015;BME280;57358;51.094;6.760;2022-10-30T04:10:42;101298.88;;;12.12;100.00
70015;BME280;57358;51.094;6.760;2022-10-30T04:13:10;101234.56;;;11.64;100.00
70015;BME280;57358;51.094;6.760;2022-10-30T04:15:37;101176.56;;;11.30;100.00
70015;BME280;57358;51.094;6.760;2022-10-30T04:18:04;101306.16;;;12.07;100.00
70015;BME280;57358;51.094;6.760;2022-10-30T04:20:30;101268.84;;;11.80;100.00
70015;BME280;57358;51.094;6.760;2022-10-30T04:23:02;101309.84;;;12.03;100.00
70015;BME280;57358;51.094;6.760;2022-10-30T04:25:30;101313.41;;;12.02;100.00
70015;BME280;57358;51.094;6.760;2022-10-30T04:27:58;101317.91;;;12.00;100.00
70015;BME280;57358;51.094;6.760;2022-10-30T04:30:25;101320.59;;;11.98;100.00
70015;BME280;57358;51.094;6.760;2022-10-30T04:32:56;101315.50;;;11.95;100.00
70015;BME280;57358;51.094;6.760;2022-10-30T04:35:27;101281.22;;;11.77;100.00
70015;BME280;57358;51.094;6.760;2022-10-30T04:37:55;101308.53;;;11.94;100.00
70015;BME280;57358;51.094;6.760;2022-10-30T04:40:23;101305.94;;;11.92;100.00
70015;BME280;57358;51.094;6.760;2022-10-30T04:42:51;101280.22;;;11.80;100.00
70015;BME280;57358;51.094;6.760;2022-10-30T04:45:18;101291.81;;;11.76;100.00
70015;BME280;57358;51.094;6.760;2022-10-30T04:47:44;101282.44;;;11.70;100.00
70015;BME280;57358;51.094;6.760;2022-10-30T04:50:11;101271.34;;;11.64;100.00
70015;BME280;57358;51.094;6.760;2022-10-30T04:52:38;101244.66;;;11.54;100.00
70015;BME280;57358;51.094;6.760;2022-10-30T04:55:05;101295.88;;;11.83;100.00
70015;BME280;57358;51.094;6.760;2022-10-30T04:57:32;101293.22;;;11.83;100.00
70015;BME280;57358;51.094;6.760;2022-10-30T05:00:00;101274.63;;;11.69;100.00
70015;BME280;57358;51.094;6.760;2022-10-30T05:02:26;101226.91;;;11.40;100.00
70015;BME280;57358;51.094;6.760;2022-10-30T05:04:53;101291.50;;;11.82;100.00
70015;BME280;57358;51.094;6.760;2022-10-30T05:07:19;101289.03;;;11.79;100.00
70015;BME280;57358;51.094;6.760;2022-10-30T05:09:46;101234.66;;;11.43;100.00
70015;BME280;57358;51.094;6.760;2022-10-30T05:12:12;101285.28;;;11.66;100.00
70015;BME280;57358;51.094;6.760;2022-10-30T05:14:39;101167.66;;;10.96;100.00
70015;BME280;57358;51.094;6.760;2022-10-30T05:17:05;101279.03;;;11.68;100.00
70015;BME280;57358;51.094;6.760;2022-10-30T05:19:31;101258.75;;;11.53;100.00
70015;BME280;57358;51.094;6.760;2022-10-30T05:21:58;101286.06;;;11.68;100.00
70015;BME280;57358;51.094;6.760;2022-10-30T05:24:24;101240.13;;;11.38;100.00
70015;BME280;57358;51.094;6.760;2022-10-30T05:26:50;101222.09;;;11.31;100.00
70015;BME280;57358;51.094;6.760;2022-10-30T05:29:17;101271.13;;;11.68;100.00
70015;BME280;57358;51.094;6.760;2022-10-30T05:31:43;101184.03;;;11.21;100.00
70015;BME280;57358;51.094;6.760;2022-10-30T05:34:09;101277.88;;;11.74;100.00
70015;BME280;57358;51.094;6.760;2022-10-30T05:36:36;101225.16;;;11.41;100.00
70015;BME280;57358;51.094;6.760;2022-10-30T05:39:02;101271.84;;;11.72;100.00
70015;BME280;57358;51.094;6.760;2022-10-30T05:41:29;101203.84;;;11.28;100.00
70015;BME280;57358;51.094;6.760;2022-10-30T05:43:55;101252.41;;;11.57;100.00
70015;BME280;57358;51.094;6.760;2022-10-30T05:46:22;101263.81;;;11.75;100.00
70015;BME280;57358;51.094;6.760;2022-10-30T05:48:48;101198.88;;;11.41;100.00
70015;BME280;57358;51.094;6.760;2022-10-30T05:51:15;101238.25;;;11.60;100.00
70015;BME280;57358;51.094;6.760;2022-10-30T05:53:41;101276.09;;;11.74;100.00
70015;BME280;57358;51.094;6.760;2022-10-30T05:56:07;101290.31;;;11.70;100.00
70015;BME280;57358;51.094;6.760;2022-10-30T05:58:34;101228.81;;;11.36;100.00
70015;BME280;57358;51.094;6.760;2022-10-30T06:01:05;101300.00;;;11.70;100.00
70015;BME280;57358;51.094;6.760;2022-10-30T06:03:32;101259.50;;;11.36;100.00
70015;BME280;57358;51.094;6.760;2022-10-30T06:05:58;101265.09;;;11.28;100.00
70015;BME280;57358;51.094;6.760;2022-10-30T06:08:25;101313.22;;;11.49;100.00
70015;BME280;57358;51.094;6.760;2022-10-30T06:10:53;101305.69;;;11.42;100.00
70015;BME280;57358;51.094;6.760;2022-10-30T06:13:19;101249.69;;;11.02;100.00
70015;BME280;57358;51.094;6.760;2022-10-30T06:15:45;101314.91;;;11.31;100.00
70015;BME280;57358;51.094;6.760;2022-10-30T06:18:12;101310.78;;;11.26;100.00
70015;BME280;57358;51.094;6.760;2022-10-30T06:20:38;101305.81;;;11.20;100.00
70015;BME280;57358;51.094;6.760;2022-10-30T06:23:06;101312.91;;;11.17;100.00
70015;BME280;57358;51.094;6.760;2022-10-30T06:25:34;101318.28;;;11.14;100.00
70015;BME280;57358;51.094;6.760;2022-10-30T06:28:06;101276.63;;;10.86;100.00
70015;BME280;57358;51.094;6.760;2022-10-30T06:30:32;101271.88;;;10.75;100.00
70015;BME280;57358;51.094;6.760;2022-10-30T06:33:00;101323.81;;;11.08;100.00
70015;BME280;57358;51.094;6.760;2022-10-30T06:35:27;101239.09;;;10.45;100.00
70015;BME280;57358;51.094;6.760;2022-10-30T06:37:54;101312.09;;;10.96;100.00
70015;BME280;57358;51.094;6.760;2022-10-30T06:40:22;101264.59;;;10.62;100.00
70015;BME280;57358;51.094;6.760;2022-10-30T06:42:51;101335.47;;;11.03;100.00
70015;BME280;57358;51.094;6.760;2022-10-30T06:45:19;101335.47;;;11.03;100.00
70015;BME280;57358;51.094;6.760;2022-10-30T06:47:46;101343.25;;;11.04;100.00
70015;BME280;57358;51.094;6.760;2022-10-30T06:50:15;101346.75;;;11.05;100.00
70015;BME280;57358;51.094;6.760;2022-10-30T06:52:42;101354.47;;;11.08;100.00
70015;BME280;57358;51.094;6.760;2022-10-30T06:55:10;101339.00;;;11.02;100.00
70015;BME280;57358;51.094;6.760;2022-10-30T06:57:36;101348.91;;;11.15;100.00
70015;BME280;57358;51.094;6.760;2022-10-30T07:00:04;101313.22;;;10.91;100.00
70015;BME280;57358;51.094;6.760;2022-10-30T07:02:31;101338.59;;;11.11;100.00
70015;BME280;57358;51.094;6.760;2022-10-30T07:04:58;101354.44;;;11.28;100.00
70015;BME280;57358;51.094;6.760;2022-10-30T07:07:24;101356.91;;;11.33;100.00
70015;BME280;57358;51.094;6.760;2022-10-30T07:09:50;101296.97;;;11.02;100.00
70015;BME280;57358;51.094;6.760;2022-10-30T07:12:17;101348.72;;;11.39;100.00
70015;BME280;57358;51.094;6.760;2022-10-30T07:14:43;101348.72;;;11.39;100.00
70015;BME280;57358;51.094;6.760;2022-10-30T07:17:10;101293.72;;;11.15;100.00
70015;BME280;57358;51.094;6.760;2022-10-30T07:19:38;101313.06;;;11.33;100.00
70015;BME280;57358;51.094;6.760;2022-10-30T07:22:04;101351.78;;;11.68;100.00
70015;BME280;57358;51.094;6.760;2022-10-30T07:24:31;101351.38;;;11.77;100.00
70015;BME280;57358;51.094;6.760;2022-10-30T07:26:57;101350.03;;;11.87;100.00
70015;BME280;57358;51.094;6.760;2022-10-30T07:29:23;101345.03;;;12.00;100.00
70015;BME280;57358;51.094;6.760;2022-10-30T07:31:50;101290.41;;;11.69;100.00
70015;BME280;57358;51.094;6.760;2022-10-30T07:34:28;101345.16;;;12.16;100.00
70015;BME280;57358;51.094;6.760;2022-10-30T07:36:54;101355.97;;;12.29;100.00
70015;BME280;57358;51.094;6.760;2022-10-30T07:39:21;101348.53;;;12.37;100.00
70015;BME280;57358;51.094;6.760;2022-10-30T07:41:48;101343.75;;;12.45;100.00
70015;BME280;57358;51.094;6.760;2022-10-30T07:44:15;101347.88;;;12.51;100.00
70015;BME280;57358;51.094;6.760;2022-10-30T07:46:42;101268.09;;;12.14;100.00
70015;BME280;57358;51.094;6.760;2022-10-30T07:49:09;101185.53;;;11.80;100.00
70015;BME280;57358;51.094;6.760;2022-10-30T07:51:35;101293.56;;;12.48;100.00
70015;BME280;57358;51.094;6.760;2022-10-30T07:54:02;101345.16;;;12.87;100.00
70015;BME280;57358;51.094;6.760;2022-10-30T07:56:28;101325.22;;;12.82;100.00
70015;BME280;57358;51.094;6.760;2022-10-30T07:58:55;101278.69;;;12.65;100.00
70015;BME280;57358;51.094;6.760;2022-10-30T08:01:21;101355.69;;;13.21;100.00
70015;BME280;57358;51.094;6.760;2022-10-30T08:03:47;101367.47;;;13.31;100.00
70015;BME280;57358;51.094;6.760;2022-10-30T08:06:14;101305.78;;;13.17;100.00
70015;BME280;57358;51.094;6.760;2022-10-30T08:08:40;101366.13;;;13.57;100.00
70015;BME280;57358;51.094;6.760;2022-10-30T08:11:08;101367.91;;;13.72;100.00
70015;BME280;57358;51.094;6.760;2022-10-30T08:13:35;101155.69;;;12.51;100.00
70015;BME280;57358;51.094;6.760;2022-10-30T08:16:01;101378.47;;;13.88;100.00
70015;BME280;57358;51.094;6.760;2022-10-30T08:18:28;101390.91;;;14.02;100.00
70015;BME280;57358;51.094;6.760;2022-10-30T08:20:54;101397.44;;;14.11;100.00
70015;BME280;57358;51.094;6.760;2022-10-30T08:23:21;101352.06;;;13.88;100.00
70015;BME280;57358;51.094;6.760;2022-10-30T08:25:48;101402.56;;;14.30;100.00
70015;BME280;57358;51.094;6.760;2022-10-30T08:28:14;101411.81;;;14.37;100.00
70015;BME280;57358;51.094;6.760;2022-10-30T08:30:41;101410.47;;;14.46;100.00
70015;BME280;57358;51.094;6.760;2022-10-30T08:33:11;101408.31;;;14.52;100.00
70015;BME280;57358;51.094;6.760;2022-10-30T08:35:45;101407.97;;;14.59;100.00
70015;BME280;57358;51.094;6.760;2022-10-30T08:38:12;101367.97;;;14.34;100.00
70015;BME280;57358;51.094;6.760;2022-10-30T08:40:38;101410.44;;;14.78;100.00
70015;BME280;57358;51.094;6.760;2022-10-30T08:43:05;101341.97;;;14.43;100.00
70015;BME280;57358;51.094;6.760;2022-10-30T08:45:31;101414.44;;;14.99;100.00
70015;BME280;57358;51.094;6.760;2022-10-30T08:47:59;101370.88;;;14.76;100.00
70015;BME280;57358;51.094;6.760;2022-10-30T08:50:28;101363.50;;;14.81;100.00
70015;BME280;57358;51.094;6.760;2022-10-30T08:52:55;101369.78;;;14.94;100.00
70015;BME280;57358;51.094;6.760;2022-10-30T08:55:21;101355.91;;;15.05;100.00
70015;BME280;57358;51.094;6.760;2022-10-30T08:57:48;101345.63;;;15.15;100.00
70015;BME280;57358;51.094;6.760;2022-10-30T09:00:14;101432.25;;;15.69;100.00
70015;BME280;57358;51.094;6.760;2022-10-30T09:02:41;101368.09;;;15.51;100.00
70015;BME280;57358;51.094;6.760;2022-10-30T09:05:08;101357.13;;;15.57;100.00
70015;BME280;57358;51.094;6.760;2022-10-30T09:07:34;101394.66;;;15.92;100.00
70015;BME280;57358;51.094;6.760;2022-10-30T09:10:02;101383.84;;;15.95;100.00
70015;BME280;57358;51.094;6.760;2022-10-30T09:12:29;101420.38;;;16.32;100.00
70015;BME280;57358;51.094;6.760;2022-10-30T09:14:55;101415.22;;;16.43;100.00
70015;BME280;57358;51.094;6.760;2022-10-30T09:17:21;101382.97;;;16.37;100.00
70015;BME280;57358;51.094;6.760;2022-10-30T09:19:48;101407.44;;;16.67;100.00
70015;BME280;57358;51.094;6.760;2022-10-30T09:22:14;101395.75;;;16.84;100.00
70015;BME280;57358;51.094;6.760;2022-10-30T09:24:40;101328.34;;;16.48;98.57
70015;BME280;57358;51.094;6.760;2022-10-30T09:27:07;101395.56;;;17.00;98.32
70015;BME280;57358;51.094;6.760;2022-10-30T09:29:33;101391.22;;;17.12;96.97
70015;BME280;57358;51.094;6.760;2022-10-30T09:32:01;101389.94;;;17.18;95.81
70015;BME280;57358;51.094;6.760;2022-10-30T09:34:30;101346.03;;;17.01;95.91
70015;BME280;57358;51.094;6.760;2022-10-30T09:36:56;101370.94;;;17.24;95.65
70015;BME280;57358;51.094;6.760;2022-10-30T09:39:23;101398.44;;;17.48;93.83
70015;BME280;57358;51.094;6.760;2022-10-30T09:41:55;101393.44;;;17.57;92.50
70015;BME280;57358;51.094;6.760;2022-10-30T09:44:44;101345.47;;;17.21;90.31
70015;BME280;57358;51.094;6.760;2022-10-30T09:53:15;101361.41;;;17.84;87.72
70015;BME280;57358;51.094;6.760;2022-10-30T09:55:53;101376.88;;;18.03;86.74
70015;BME280;57358;51.094;6.760;2022-10-30T09:58:53;101345.47;;;17.97;87.04
70015;BME280;57358;51.094;6.760;2022-10-30T10:01:34;101387.13;;;18.44;86.99
70015;BME280;57358;51.094;6.760;2022-10-30T10:04:22;101380.53;;;18.61;85.57
70015;BME280;57358;51.094;6.760;2022-10-30T10:06:56;101374.59;;;18.58;84.04
70015;BME280;57358;51.094;6.760;2022-10-30T10:09:27;101365.88;;;18.56;83.81
70015;BME280;57358;51.094;6.760;2022-10-30T10:12:04;101260.31;;;17.87;84.10
70015;BME280;57358;51.094;6.760;2022-10-30T10:14:35;101370.53;;;18.65;83.92
70015;BME280;57358;51.094;6.760;2022-10-30T10:17:04;101322.81;;;18.39;83.11
70015;BME280;57358;51.094;6.760;2022-10-30T10:19:49;101333.50;;;18.50;82.61
70015;BME280;57358;51.094;6.760;2022-10-30T10:22:44;101357.38;;;18.74;82.26
70015;BME280;57358;51.094;6.760;2022-10-30T10:25:12;101331.75;;;18.73;82.30
70015;BME280;57358;51.094;6.760;2022-10-30T10:27:53;101304.44;;;18.71;80.31
70015;BME280;57358;51.094;6.760;2022-10-30T10:30:30;101345.50;;;19.03;79.79
70015;BME280;57358;51.094;6.760;2022-10-30T10:44:16;101351.19;;;19.32;79.24
70015;BME280;57358;51.094;6.760;2022-10-30T10:46:57;101337.06;;;19.43;78.47
70015;BME280;57358;51.094;6.760;2022-10-30T10:52:36;101321.41;;;19.49;76.78
70015;BME280;57358;51.094;6.760;2022-10-30T10:55:13;101298.44;;;19.37;76.35
70015;BME280;57358;51.094;6.760;2022-10-30T10:57:42;101311.72;;;19.60;76.37
70015;BME280;57358;51.094;6.760;2022-10-30T11:00:17;101318.38;;;19.65;77.02
70015;BME280;57358;51.094;6.760;2022-10-30T11:02:59;101304.44;;;19.84;75.28
70015;BME280;57358;51.094;6.760;2022-10-30T11:05:48;101255.84;;;19.48;74.67
70015;BME280;57358;51.094;6.760;2022-10-30T11:08:23;101269.75;;;19.75;74.74
70015;BME280;57358;51.094;6.760;2022-10-30T11:10:55;101315.28;;;20.04;76.45
70015;BME280;57358;51.094;6.760;2022-10-30T11:13:34;101315.84;;;20.19;74.63
70015;BME280;57358;51.094;6.760;2022-10-30T11:16:24;101263.00;;;19.91;73.86
70015;BME280;57358;51.094;6.760;2022-10-30T11:19:00;101298.41;;;20.15;75.16
70015;BME280;57358;51.094;6.760;2022-10-30T11:21:30;101289.22;;;20.07;75.40
70015;BME280;57358;51.094;6.760;2022-10-30T11:23:59;101290.25;;;19.95;76.33
70015;BME280;57358;51.094;6.760;2022-10-30T11:26:29;101289.81;;;20.11;75.64
70015;BME280;57358;51.094;6.760;2022-10-30T11:29:08;101290.28;;;20.16;74.21
70015;BME280;57358;51.094;6.760;2022-10-30T11:31:41;101278.28;;;20.10;73.97
70015;BME280;57358;51.094;6.760;2022-10-30T11:36:46;101259.16;;;20.17;74.11
70015;BME280;57358;51.094;6.760;2022-10-30T11:39:20;101276.47;;;20.43;73.72
70015;BME280;57358;51.094;6.760;2022-10-30T11:44:26;101265.97;;;20.51;71.76
70015;BME280;57358;51.094;6.760;2022-10-30T11:46:54;101269.59;;;20.62;72.36
70015;BME280;57358;51.094;6.760;2022-10-30T11:49:31;101268.16;;;20.88;72.62
70015;BME280;57358;51.094;6.760;2022-10-30T11:52:01;101202.28;;;20.58;71.32
70015;BME280;57358;51.094;6.760;2022-10-30T11:54:28;101211.50;;;20.65;71.64
70015;BME280;57358;51.094;6.760;2022-10-30T11:56:56;101260.66;;;21.03;72.43
70015;BME280;57358;51.094;6.760;2022-10-30T11:59:24;101227.84;;;20.82;71.75
70015;BME280;57358;51.094;6.760;2022-10-30T12:01:59;101255.91;;;21.07;71.66
70015;BME280;57358;51.094;6.760;2022-10-30T12:04:27;101244.91;;;21.00;71.38
70015;BME280;57358;51.094;6.760;2022-10-30T12:07:23;101256.47;;;21.10;72.21
70015;BME280;57358;51.094;6.760;2022-10-30T12:09:51;101247.91;;;21.17;71.37
70015;BME280;57358;51.094;6.760;2022-10-30T12:12:21;101249.06;;;21.24;71.34
70015;BME280;57358;51.094;6.760;2022-10-30T12:14:49;101231.72;;;21.08;71.14
70015;BME280;57358;51.094;6.760;2022-10-30T12:17:16;101223.59;;;21.10;71.08
70015;BME280;57358;51.094;6.760;2022-10-30T12:19:53;101248.22;;;21.23;72.25
70015;BME280;57358;51.094;6.760;2022-10-30T12:22:27;101248.53;;;21.30;71.47
70015;BME280;57358;51.094;6.760;2022-10-30T12:24:55;101245.59;;;21.33;71.16
70015;BME280;57358;51.094;6.760;2022-10-30T12:27:22;101249.50;;;21.39;71.74
70015;BME280;57358;51.094;6.760;2022-10-30T12:30:00;101241.25;;;21.42;71.58
70015;BME280;57358;51.094;6.760;2022-10-30T12:32:52;101207.34;;;21.23;72.25
70015;BME280;57358;51.094;6.760;2022-10-30T12:37:56;101223.88;;;21.47;71.46
70015;BME280;57358;51.094;6.760;2022-10-30T12:40:29;101165.34;;;21.25;70.00
70015;BME280;57358;51.094;6.760;2022-10-30T12:43:08;101190.28;;;21.45;70.32
70015;BME280;57358;51.094;6.760;2022-10-30T12:45:41;101204.63;;;21.54;69.80
70015;BME280;57358;51.094;6.760;2022-10-30T12:51:21;101214.31;;;21.74;69.82
70015;BME280;57358;51.094;6.760;2022-10-30T12:54:04;101210.94;;;21.72;70.19
70015;BME280;57358;51.094;6.760;2022-10-30T12:56:40;101192.78;;;21.46;70.28
70015;BME280;57358;51.094;6.760;2022-10-30T13:04:50;101216.69;;;21.48;70.57
70015;BME280;57358;51.094;6.760;2022-10-30T13:07:28;101203.28;;;21.38;70.68
70015;BME280;57358;51.094;6.760;2022-10-30T13:12:45;101210.78;;;21.54;70.64
70015;BME280;57358;51.094;6.760;2022-10-30T13:15:26;101212.34;;;21.57;70.07
70015;BME280;57358;51.094;6.760;2022-10-30T13:17:56;101197.03;;;21.49;69.39
70015;BME280;57358;51.094;6.760;2022-10-30T13:20:25;101168.28;;;21.31;70.41
70015;BME280;57358;51.094;6.760;2022-10-30T13:23:10;101195.19;;;21.49;70.72
70015;BME280;57358;51.094;6.760;2022-10-30T13:28:27;101190.97;;;21.57;69.80
70015;BME280;57358;51.094;6.760;2022-10-30T13:33:56;101193.94;;;21.73;68.75
70015;BME280;57358;51.094;6.760;2022-10-30T13:36:32;101145.81;;;21.34;69.78
70015;BME280;57358;51.094;6.760;2022-10-30T13:42:01;101157.63;;;21.41;70.10
70015;BME280;57358;51.094;6.760;2022-10-30T13:44:54;101203.50;;;21.66;70.88
70015;BME280;57358;51.094;6.760;2022-10-30T13:53:18;101198.28;;;21.55;71.66
70015;BME280;57358;51.094;6.760;2022-10-30T13:55:47;101209.81;;;21.65;72.16
70015;BME280;57358;51.094;6.760;2022-10-30T13:58:19;101207.13;;;21.65;71.72
70015;BME280;57358;51.094;6.760;2022-10-30T14:00:53;101063.84;;;20.76;71.08
70015;BME280;57358;51.094;6.760;2022-10-30T14:06:18;101217.97;;;21.54;72.95
70015;BME280;57358;51.094;6.760;2022-10-30T14:09:05;101176.28;;;21.22;72.25
70015;BME280;57358;51.094;6.760;2022-10-30T14:11:33;101212.88;;;21.50;73.31
70015;BME280;57358;51.094;6.760;2022-10-30T14:14:23;101206.44;;;21.53;73.56
70015;BME280;57358;51.094;6.760;2022-10-30T14:17:14;101208.97;;;21.45;72.19